createdAt,value
2023-01-30T00:01:32.309Z,101267.60
2023-01-30T00:04:01.191Z,101259.80
2023-01-30T00:06:29.014Z,101259.80
2023-01-30T00:08:56.842Z,101257.60
2023-01-30T00:11:24.811Z,101251.80
2023-01-30T00:13:52.754Z,101249.00
2023-01-30T00:16:20.641Z,101253.20
2023-01-30T00:18:48.704Z,101254.00
2023-01-30T00:21:17.115Z,101248.00
2023-01-30T00:23:45.560Z,101251.20
2023-01-30T00:26:14.142Z,101247.60
2023-01-30T00:28:43.348Z,101235.80
2023-01-30T00:31:11.489Z,101233.60
2023-01-30T00:33:39.655Z,101242.40
2023-01-30T00:36:08.134Z,101254.40
2023-01-30T00:38:36.411Z,101243.00
2023-01-30T00:41:05.010Z,101250.80
2023-01-30T00:43:51.310Z,101246.60
2023-01-30T00:46:50.464Z,101249.00
2023-01-30T00:49:19.071Z,101248.40
2023-01-30T00:51:47.574Z,101243.60
2023-01-30T00:54:15.525Z,101239.60
2023-01-30T00:56:43.476Z,101235.80
2023-01-30T00:59:11.388Z,101236.80
2023-01-30T01:01:39.415Z,101235.60
2023-01-30T01:04:08.958Z,101230.80
2023-01-30T01:06:38.557Z,101224.20
2023-01-30T01:09:07.697Z,101208.60
2023-01-30T01:11:36.586Z,101215.80
2023-01-30T01:14:06.445Z,101221.20
2023-01-30T01:16:36.084Z,101230.60
2023-01-30T01:19:04.481Z,101219.80
2023-01-30T01:21:33.144Z,101208.40
2023-01-30T01:24:01.200Z,101203.40
2023-01-30T01:26:29.273Z,101192.60
2023-01-30T01:28:59.006Z,101185.60
2023-01-30T01:31:27.452Z,101177.80
2023-01-30T01:33:57.677Z,101177.20
2023-01-30T01:36:52.300Z,101167.40
2023-01-30T01:39:14.837Z,101168.80
2023-01-30T01:41:43.126Z,101160.80
2023-01-30T01:44:14.321Z,101172.00
2023-01-30T01:46:56.779Z,101180.80
2023-01-30T01:49:42.817Z,101179.80
2023-01-30T01:52:16.932Z,101183.40
2023-01-30T01:54:59.649Z,101183.00
2023-01-30T01:58:04.780Z,101182.00
2023-01-30T02:00:33.213Z,101166.80
2023-01-30T02:03:06.605Z,101171.60
2023-01-30T02:05:42.226Z,101168.20
2023-01-30T02:08:22.127Z,101169.20
2023-01-30T02:11:10.045Z,101168.60
2023-01-30T02:13:38.732Z,101176.40
2023-01-30T02:16:09.530Z,101168.20
2023-01-30T02:18:42.769Z,101161.00
2023-01-30T02:21:19.508Z,101167.80
2023-01-30T02:24:12.032Z,101171.20
2023-01-30T02:27:02.803Z,101171.20
2023-01-30T02:29:53.846Z,101170.20
2023-01-30T02:32:45.397Z,101171.40
2023-01-30T02:35:47.546Z,101182.20
2023-01-30T02:38:32.904Z,101173.20
2023-01-30T02:41:34.755Z,101177.60
2023-01-30T02:44:27.013Z,101181.40
2023-01-30T02:47:04.254Z,101177.80
2023-01-30T02:49:40.956Z,101185.40
2023-01-30T02:52:14.007Z,101192.60
2023-01-30T02:54:41.868Z,101189.00
2023-01-30T02:57:25.540Z,101184.60
2023-01-30T03:00:01.882Z,101182.80
2023-01-30T03:03:07.342Z,101184.20
2023-01-30T03:06:01.997Z,101184.80
2023-01-30T03:08:57.988Z,101189.00
2023-01-30T03:11:57.193Z,101187.40
2023-01-30T03:14:49.124Z,101182.60
2023-01-30T03:17:23.158Z,101194.60
2023-01-30T03:19:55.258Z,101207.20
2023-01-30T03:22:23.320Z,101205.20
2023-01-30T03:24:54.365Z,101198.00
2023-01-30T03:27:23.073Z,101207.00
2023-01-30T03:29:50.951Z,101210.40
2023-01-30T03:32:18.778Z,101211.00
2023-01-30T03:34:46.640Z,101211.00
2023-01-30T03:37:14.518Z,101205.40
2023-01-30T03:39:42.528Z,101212.60
2023-01-30T03:42:11.350Z,101209.20
2023-01-30T03:44:39.274Z,101211.60
2023-01-30T03:47:08.554Z,101210.80
2023-01-30T03:49:36.523Z,101213.20
2023-01-30T03:52:04.592Z,101209.00
2023-01-30T03:54:32.671Z,101211.60
2023-01-30T03:57:00.546Z,101210.80
2023-01-30T03:59:28.427Z,101209.20
2023-01-30T04:02:02.774Z,101206.60
2023-01-30T04:04:30.847Z,101208.60
2023-01-30T04:06:59.071Z,101210.20
2023-01-30T04:09:27.709Z,101212.80
2023-01-30T04:11:55.845Z,101219.80
2023-01-30T04:14:23.926Z,101227.20
2023-01-30T04:17:14.897Z,101222.60
2023-01-30T04:20:09.798Z,101220.00
2023-01-30T04:22:38.177Z,101221.20
2023-01-30T04:25:06.347Z,101226.60
2023-01-30T04:27:34.217Z,101238.00
2023-01-30T04:30:12.353Z,101238.40
2023-01-30T04:32:40.426Z,101248.20
2023-01-30T04:35:10.153Z,101246.00
2023-01-30T04:37:38.179Z,101255.20
2023-01-30T04:40:07.483Z,101258.00
2023-01-30T04:42:35.680Z,101257.80
2023-01-30T04:45:23.774Z,101266.40
2023-01-30T04:47:51.880Z,101264.60
2023-01-30T04:50:19.851Z,101267.60
2023-01-30T04:52:47.957Z,101275.20
2023-01-30T04:55:16.110Z,101276.00
2023-01-30T04:57:44.209Z,101285.80
2023-01-30T05:00:12.668Z,101286.80
2023-01-30T05:02:44.115Z,101295.20
2023-01-30T05:05:11.935Z,101296.00
2023-01-30T05:07:39.833Z,101291.00
2023-01-30T05:10:08.383Z,101289.20
2023-01-30T05:12:36.268Z,101298.00
2023-01-30T05:15:05.077Z,101296.00
2023-01-30T05:17:34.270Z,101292.00
2023-01-30T05:20:02.319Z,101303.40
2023-01-30T05:22:30.119Z,101303.20
2023-01-30T05:24:57.923Z,101303.00
2023-01-30T05:27:25.850Z,101312.60
2023-01-30T05:29:53.794Z,101318.80
2023-01-30T05:32:21.638Z,101323.00
2023-01-30T05:34:50.061Z,101318.40
2023-01-30T05:37:18.029Z,101317.80
2023-01-30T05:39:45.817Z,101325.00
2023-01-30T05:42:15.412Z,101338.00
2023-01-30T05:44:43.202Z,101338.40
2023-01-30T05:47:10.919Z,101340.60
2023-01-30T05:49:38.817Z,101342.00
2023-01-30T05:52:06.695Z,101344.00
2023-01-30T05:54:35.513Z,101348.00
2023-01-30T05:57:04.025Z,101360.60
2023-01-30T05:59:31.891Z,101363.00
2023-01-30T06:01:59.764Z,101357.00
2023-01-30T06:04:27.558Z,101359.80
2023-01-30T06:06:55.333Z,101354.20
2023-01-30T06:09:23.108Z,101346.80
2023-01-30T06:11:52.507Z,101359.20
2023-01-30T06:14:21.391Z,101369.00
2023-01-30T06:16:49.406Z,101359.40
2023-01-30T06:19:17.230Z,101353.40
2023-01-30T06:21:45.233Z,101356.40
2023-01-30T06:24:13.225Z,101368.60
2023-01-30T06:26:41.070Z,101368.20
2023-01-30T06:29:08.910Z,101367.40
2023-01-30T06:31:36.791Z,101374.80
2023-01-30T06:34:04.692Z,101370.80
2023-01-30T06:36:32.859Z,101361.80
2023-01-30T06:39:00.718Z,101364.20
2023-01-30T06:41:28.554Z,101367.80
2023-01-30T06:43:56.380Z,101375.00
2023-01-30T06:46:24.248Z,101386.80
2023-01-30T06:48:52.168Z,101382.60
2023-01-30T06:51:20.073Z,101391.80
2023-01-30T06:53:47.932Z,101394.40
2023-01-30T06:56:15.733Z,101392.40
2023-01-30T06:58:43.597Z,101395.40
2023-01-30T07:01:12.053Z,101396.40
2023-01-30T07:03:45.714Z,101402.00
2023-01-30T07:06:14.981Z,101410.80
2023-01-30T07:08:44.360Z,101412.20
2023-01-30T07:11:12.237Z,101415.40
2023-01-30T07:13:40.095Z,101428.40
2023-01-30T07:16:08.239Z,101433.60
2023-01-30T07:18:36.306Z,101435.80
2023-01-30T07:21:05.529Z,101446.20
2023-01-30T07:23:33.539Z,101456.60
2023-01-30T07:26:05.167Z,101468.20
2023-01-30T07:28:33.142Z,101477.40
2023-01-30T07:31:01.980Z,101486.20
2023-01-30T07:33:29.930Z,101490.20
2023-01-30T07:35:57.967Z,101495.20
2023-01-30T07:38:25.795Z,101496.00
2023-01-30T07:40:53.632Z,101505.40
2023-01-30T07:43:21.524Z,101509.20
2023-01-30T07:45:49.467Z,101517.40
2023-01-30T07:48:19.997Z,101525.20
2023-01-30T07:50:47.834Z,101530.00
2023-01-30T07:53:18.994Z,101521.00
2023-01-30T07:55:46.831Z,101519.60
2023-01-30T07:58:15.966Z,101524.40
2023-01-30T08:00:44.717Z,101512.20
2023-01-30T08:03:15.154Z,101502.80
2023-01-30T08:05:46.826Z,101507.40
2023-01-30T08:08:15.330Z,101504.40
2023-01-30T08:10:43.321Z,101502.00
2023-01-30T08:13:11.119Z,101496.80
2023-01-30T08:15:39.095Z,101502.40
2023-01-30T08:18:07.476Z,101504.80
2023-01-30T08:20:36.681Z,101509.40
2023-01-30T08:23:04.789Z,101510.00
2023-01-30T08:25:32.631Z,101519.80
2023-01-30T08:28:00.602Z,101518.40
2023-01-30T08:30:30.619Z,101521.20
2023-01-30T08:32:59.127Z,101521.80
2023-01-30T08:35:26.916Z,101532.80
2023-01-30T08:37:54.714Z,101535.20
2023-01-30T08:40:22.544Z,101537.20
2023-01-30T08:42:50.360Z,101537.80
2023-01-30T08:45:18.157Z,101547.60
2023-01-30T08:47:45.916Z,101550.20
2023-01-30T08:50:13.716Z,101558.00
2023-01-30T08:52:41.595Z,101565.60
2023-01-30T08:55:10.353Z,101553.80
2023-01-30T08:57:38.165Z,101549.00
2023-01-30T09:00:07.290Z,101536.80
2023-01-30T09:02:35.577Z,101542.60
2023-01-30T09:05:06.007Z,101536.40
2023-01-30T09:07:34.178Z,101533.20
2023-01-30T09:10:02.151Z,101536.60
2023-01-30T09:12:29.950Z,101537.80
2023-01-30T09:14:58.533Z,101535.00
2023-01-30T09:17:26.618Z,101535.20
2023-01-30T09:19:54.696Z,101530.40
2023-01-30T09:22:22.590Z,101527.00
2023-01-30T09:24:50.386Z,101522.00
2023-01-30T09:27:18.253Z,101520.60
2023-01-30T09:29:46.191Z,101525.00
2023-01-30T09:32:14.017Z,101533.00
2023-01-30T09:34:41.850Z,101532.20
2023-01-30T09:37:09.959Z,101543.40
2023-01-30T09:39:37.775Z,101548.60
2023-01-30T09:42:05.608Z,101556.00
2023-01-30T09:45:16.751Z,101558.00
2023-01-30T09:48:05.277Z,101566.20
2023-01-30T09:51:07.400Z,101568.20
2023-01-30T09:53:55.657Z,101556.20
2023-01-30T09:56:23.736Z,101554.40
2023-01-30T09:58:59.877Z,101564.00
2023-01-30T10:01:44.427Z,101565.80
2023-01-30T10:04:39.030Z,101569.00
2023-01-30T10:07:29.082Z,101571.20
2023-01-30T10:10:51.036Z,101559.80
2023-01-30T10:13:44.354Z,101567.00
2023-01-30T10:16:24.892Z,101577.40
2023-01-30T10:19:11.316Z,101570.20
2023-01-30T10:22:17.185Z,101569.00
2023-01-30T10:25:11.671Z,101567.20
2023-01-30T10:27:52.381Z,101567.80
2023-01-30T10:30:21.398Z,101569.40
2023-01-30T10:33:05.975Z,101567.20
2023-01-30T10:35:42.910Z,101568.80
2023-01-30T10:38:21.941Z,101581.20
2023-01-30T10:41:12.937Z,101581.20
2023-01-30T10:43:54.643Z,101580.00
2023-01-30T10:46:44.126Z,101587.00
2023-01-30T10:49:23.261Z,101592.60
2023-01-30T10:52:19.077Z,101596.00
2023-01-30T10:55:10.471Z,101590.80
2023-01-30T10:58:04.011Z,101584.60
2023-01-30T11:00:40.436Z,101585.00
2023-01-30T11:03:41.517Z,101588.80
2023-01-30T11:06:18.714Z,101598.20
2023-01-30T11:08:46.722Z,101609.60
2023-01-30T11:11:42.644Z,101626.00
2023-01-30T11:14:12.299Z,101617.20
2023-01-30T11:16:48.466Z,101627.40
2023-01-30T11:19:22.869Z,101622.60
2023-01-30T11:22:04.106Z,101620.00
2023-01-30T11:24:40.232Z,101617.00
2023-01-30T11:27:17.717Z,101623.60
2023-01-30T11:29:46.404Z,101629.60
2023-01-30T11:32:28.489Z,101633.40
2023-01-30T11:35:08.448Z,101637.40
2023-01-30T11:37:44.453Z,101629.60
2023-01-30T11:40:28.096Z,101629.20
2023-01-30T11:43:10.802Z,101631.60
2023-01-30T11:45:44.523Z,101630.60
2023-01-30T11:48:59.895Z,101624.40
2023-01-30T11:51:10.843Z,101614.60
2023-01-30T11:53:49.251Z,101606.60
2023-01-30T11:56:37.308Z,101610.60
2023-01-30T11:59:23.350Z,101599.20
2023-01-30T12:01:51.929Z,101602.60
2023-01-30T12:04:20.442Z,101604.80
2023-01-30T12:07:16.684Z,101605.40
2023-01-30T12:09:44.660Z,101609.20
2023-01-30T12:12:29.801Z,101612.00
2023-01-30T12:15:27.405Z,101605.40
2023-01-30T12:18:18.964Z,101609.40
2023-01-30T12:20:56.066Z,101614.00
2023-01-30T12:23:44.674Z,101623.20
2023-01-30T12:26:27.691Z,101628.40
2023-01-30T12:29:24.906Z,101632.60
2023-01-30T12:32:18.618Z,101633.80
2023-01-30T12:34:48.302Z,101634.00
2023-01-30T12:37:49.888Z,101623.40
2023-01-30T12:40:29.386Z,101615.60
2023-01-30T12:43:21.318Z,101607.80
2023-01-30T12:46:13.721Z,101634.60
2023-01-30T12:49:10.984Z,101620.40
2023-01-30T12:51:49.381Z,101615.00
2023-01-30T12:54:47.140Z,101600.60
2023-01-30T12:57:37.892Z,101603.80
2023-01-30T13:00:23.887Z,101590.80
2023-01-30T13:03:38.276Z,101584.60
2023-01-30T13:06:22.809Z,101573.40
2023-01-30T13:09:14.977Z,101588.00
2023-01-30T13:12:17.445Z,101591.40
2023-01-30T13:15:06.868Z,101602.00
2023-01-30T13:17:53.317Z,101586.80
2023-01-30T13:20:55.725Z,101580.80
2023-01-30T13:23:38.606Z,101583.20
2023-01-30T13:26:15.995Z,101574.60
2023-01-30T13:28:49.172Z,101574.00
2023-01-30T13:31:24.812Z,101593.60
2023-01-30T13:34:10.301Z,101594.00
2023-01-30T13:36:57.111Z,101602.20
2023-01-30T13:39:48.563Z,101611.80
2023-01-30T13:43:13.168Z,101618.60
2023-01-30T13:45:47.466Z,101626.80
2023-01-30T13:48:38.575Z,101624.40
2023-01-30T13:51:06.360Z,101622.00
2023-01-30T13:53:52.612Z,101622.00
2023-01-30T13:56:46.047Z,101612.40
2023-01-30T13:59:35.613Z,101608.80
2023-01-30T14:02:03.769Z,101607.60
2023-01-30T14:04:40.829Z,101619.60
2023-01-30T14:07:09.753Z,101607.40
2023-01-30T14:09:50.537Z,101606.60
2023-01-30T14:12:28.602Z,101597.80
2023-01-30T14:15:14.825Z,101603.60
2023-01-30T14:18:08.532Z,101609.00
2023-01-30T14:20:44.404Z,101612.20
2023-01-30T14:23:36.018Z,101622.40
2023-01-30T14:26:04.196Z,101627.80
2023-01-30T14:28:31.944Z,101621.60
2023-01-30T14:31:02.669Z,101623.80
2023-01-30T14:33:48.699Z,101623.80
2023-01-30T14:36:16.488Z,101629.60
2023-01-30T14:38:56.085Z,101629.00
2023-01-30T14:41:28.737Z,101634.60
2023-01-30T14:43:56.553Z,101642.80
2023-01-30T14:46:24.362Z,101651.60
2023-01-30T14:49:26.678Z,101657.00
2023-01-30T14:51:56.242Z,101657.00
2023-01-30T14:54:41.150Z,101650.40
2023-01-30T14:57:27.571Z,101644.80
2023-01-30T15:00:19.089Z,101638.80
2023-01-30T15:03:20.391Z,101632.80
2023-01-30T15:05:48.553Z,101632.80
2023-01-30T15:08:22.706Z,101640.20
2023-01-30T15:11:16.970Z,101650.80
2023-01-30T15:13:55.718Z,101653.80
2023-01-30T15:16:47.956Z,101664.20
2023-01-30T15:19:49.532Z,101671.40
2023-01-30T15:22:42.721Z,101676.80
2023-01-30T15:25:31.758Z,101673.60
2023-01-30T15:28:19.760Z,101667.60
2023-01-30T15:31:08.715Z,101672.00
2023-01-30T15:33:45.528Z,101669.80
2023-01-30T15:36:25.288Z,101669.40
2023-01-30T15:39:06.016Z,101672.00
2023-01-30T15:41:42.582Z,101689.60
2023-01-30T15:44:50.424Z,101693.60
2023-01-30T15:47:49.744Z,101702.60
2023-01-30T15:50:18.595Z,101716.40
2023-01-30T15:52:50.149Z,101714.80
2023-01-30T15:55:33.861Z,101712.00
2023-01-30T15:58:09.543Z,101719.60
2023-01-30T16:00:47.719Z,101716.80
2023-01-30T16:03:28.177Z,101723.40
2023-01-30T16:05:58.279Z,101726.40
2023-01-30T16:08:36.731Z,101722.60
2023-01-30T16:11:04.848Z,101725.00
2023-01-30T16:13:33.354Z,101724.00
2023-01-30T16:16:16.709Z,101734.20
2023-01-30T16:19:02.687Z,101746.60
2023-01-30T16:21:40.252Z,101750.20
2023-01-30T16:24:22.550Z,101756.80
2023-01-30T16:26:56.231Z,101754.40
2023-01-30T16:29:28.818Z,101754.20
2023-01-30T16:31:57.347Z,101752.80
2023-01-30T16:34:33.019Z,101751.00
2023-01-30T16:37:30.963Z,101753.00
2023-01-30T16:40:11.024Z,101757.40
2023-01-30T16:42:38.995Z,101753.20
2023-01-30T16:45:12.953Z,101764.00
2023-01-30T16:47:41.139Z,101766.40
2023-01-30T16:50:22.405Z,101775.20
2023-01-30T16:52:56.047Z,101785.60
2023-01-30T16:55:26.864Z,101789.00
2023-01-30T16:57:59.978Z,101790.20
2023-01-30T17:00:40.111Z,101792.60
2023-01-30T17:03:28.657Z,101793.40
2023-01-30T17:05:58.526Z,101787.00
2023-01-30T17:08:49.615Z,101788.40
2023-01-30T17:11:40.436Z,101793.60
2023-01-30T17:14:30.562Z,101798.80
2023-01-30T17:17:09.888Z,101794.60
2023-01-30T17:19:38.300Z,101798.40
2023-01-30T17:22:19.240Z,101799.20
2023-01-30T17:24:47.111Z,101808.00
2023-01-30T17:27:16.428Z,101810.20
2023-01-30T17:29:45.973Z,101814.80
2023-01-30T17:32:16.046Z,101812.60
2023-01-30T17:34:44.157Z,101817.60
2023-01-30T17:37:17.371Z,101824.20
2023-01-30T17:39:45.423Z,101824.60
2023-01-30T17:42:17.796Z,101823.40
2023-01-30T17:44:45.706Z,101824.20
2023-01-30T17:47:13.754Z,101830.80
2023-01-30T17:49:42.135Z,101830.00
2023-01-30T17:52:13.494Z,101840.80
2023-01-30T17:54:41.437Z,101841.00
2023-01-30T17:57:15.697Z,101840.00
2023-01-30T17:59:43.727Z,101839.00
2023-01-30T18:02:11.565Z,101831.80
2023-01-30T18:04:42.778Z,101842.20
2023-01-30T18:07:16.536Z,101846.00
2023-01-30T18:09:44.433Z,101849.80
2023-01-30T18:12:12.306Z,101861.20
2023-01-30T18:14:40.088Z,101859.20
2023-01-30T18:17:09.776Z,101863.60
2023-01-30T18:19:37.638Z,101868.00
2023-01-30T18:22:05.583Z,101871.60
2023-01-30T18:24:34.308Z,101871.80
2023-01-30T18:27:02.233Z,101863.00
2023-01-30T18:29:30.285Z,101856.80
2023-01-30T18:32:04.938Z,101853.00
2023-01-30T18:34:32.864Z,101854.60
2023-01-30T18:37:00.940Z,101851.00
2023-01-30T18:39:29.330Z,101842.60
2023-01-30T18:41:57.255Z,101842.80
2023-01-30T18:44:25.293Z,101852.80
2023-01-30T18:47:00.369Z,101859.40
2023-01-30T18:49:31.239Z,101872.80
2023-01-30T18:51:59.830Z,101877.40
2023-01-30T18:54:27.685Z,101867.40
2023-01-30T18:56:57.031Z,101875.40
2023-01-30T18:59:26.401Z,101882.00
2023-01-30T19:01:54.291Z,101878.00
2023-01-30T19:04:22.441Z,101874.80
2023-01-30T19:06:50.226Z,101865.60
2023-01-30T19:09:19.053Z,101870.60
2023-01-30T19:12:05.699Z,101865.20
2023-01-30T19:14:33.652Z,101859.80
2023-01-30T19:17:01.635Z,101866.60
2023-01-30T19:19:29.747Z,101856.20
2023-01-30T19:21:57.680Z,101875.40
2023-01-30T19:24:25.924Z,101880.20
2023-01-30T19:26:53.900Z,101883.40
2023-01-30T19:29:21.951Z,101887.80
2023-01-30T19:31:50.263Z,101885.60
2023-01-30T19:34:18.450Z,101888.40
2023-01-30T19:36:46.509Z,101885.80
2023-01-30T19:39:14.437Z,101885.20
2023-01-30T19:41:42.406Z,101888.60
2023-01-30T19:44:11.956Z,101894.20
2023-01-30T19:46:40.769Z,101892.20
2023-01-30T19:49:11.839Z,101896.40
2023-01-30T19:51:40.680Z,101885.00
2023-01-30T19:54:11.978Z,101890.20
2023-01-30T19:56:42.417Z,101896.60
2023-01-30T19:59:12.917Z,101895.00
2023-01-30T20:01:41.047Z,101896.40
2023-01-30T20:04:09.244Z,101899.80
2023-01-30T20:06:42.880Z,101894.00
2023-01-30T20:09:11.626Z,101885.20
2023-01-30T20:11:41.765Z,101881.00
2023-01-30T20:14:11.223Z,101885.60
2023-01-30T20:16:40.129Z,101881.20
2023-01-30T20:19:17.006Z,101882.00
2023-01-30T20:21:45.585Z,101885.20
2023-01-30T20:24:15.556Z,101883.00
2023-01-30T20:26:47.196Z,101891.00
2023-01-30T20:29:17.568Z,101886.40
2023-01-30T20:31:45.621Z,101878.20
2023-01-30T20:34:15.255Z,101882.80
2023-01-30T20:36:43.259Z,101880.20
2023-01-30T20:39:11.467Z,101880.00
2023-01-30T20:41:39.680Z,101877.00
2023-01-30T20:44:11.823Z,101873.20
2023-01-30T20:46:49.803Z,101876.40
2023-01-30T20:49:21.216Z,101883.20
2023-01-30T20:51:52.775Z,101877.40
2023-01-30T20:54:22.735Z,101883.20
2023-01-30T20:56:53.310Z,101875.60
2023-01-30T20:59:24.627Z,101884.00
2023-01-30T21:01:53.682Z,101883.20
2023-01-30T21:04:24.343Z,101870.20
2023-01-30T21:06:52.696Z,101876.00
2023-01-30T21:09:23.534Z,101878.00
2023-01-30T21:11:53.302Z,101878.00
2023-01-30T21:14:22.013Z,101880.00
2023-01-30T21:16:50.103Z,101884.00
2023-01-30T21:19:18.672Z,101868.80
2023-01-30T21:21:54.121Z,101877.40
2023-01-30T21:24:28.026Z,101886.40
2023-01-30T21:26:57.214Z,101884.80
2023-01-30T21:29:27.894Z,101875.20
2023-01-30T21:31:58.710Z,101861.20
2023-01-30T21:34:26.893Z,101884.60
2023-01-30T21:37:13.622Z,101883.60
2023-01-30T21:39:59.912Z,101881.00
2023-01-30T21:42:46.484Z,101882.00
2023-01-30T21:45:15.333Z,101875.80
2023-01-30T21:47:43.152Z,101874.20
2023-01-30T21:50:11.287Z,101875.00
2023-01-30T21:52:39.180Z,101876.00
2023-01-30T21:55:08.337Z,101872.00
2023-01-30T21:57:36.614Z,101867.00
2023-01-30T22:00:05.523Z,101868.80
2023-01-30T22:02:33.228Z,101860.80
2023-01-30T22:05:01.040Z,101857.20
2023-01-30T22:07:28.838Z,101863.20
2023-01-30T22:09:57.174Z,101869.00
2023-01-30T22:12:26.503Z,101872.00
2023-01-30T22:14:54.950Z,101872.20
2023-01-30T22:17:22.920Z,101880.40
2023-01-30T22:19:50.699Z,101887.60
2023-01-30T22:22:18.622Z,101878.00
2023-01-30T22:24:46.383Z,101875.20
2023-01-30T22:27:16.434Z,101879.20
2023-01-30T22:29:44.239Z,101879.00
2023-01-30T22:32:12.307Z,101890.40
2023-01-30T22:34:40.559Z,101892.20
2023-01-30T22:37:08.665Z,101883.20
2023-01-30T22:39:37.258Z,101883.00
2023-01-30T22:42:07.612Z,101879.20
2023-01-30T22:44:35.908Z,101880.40
2023-01-30T22:47:03.888Z,101875.80
2023-01-30T22:49:31.796Z,101861.00
2023-01-30T22:52:01.713Z,101862.00
2023-01-30T22:54:29.797Z,101866.40
2023-01-30T22:56:57.599Z,101860.60
2023-01-30T22:59:25.530Z,101856.20
2023-01-30T23:01:53.421Z,101844.00
2023-01-30T23:04:23.367Z,101846.20
2023-01-30T23:06:52.225Z,101844.40
2023-01-30T23:09:23.266Z,101837.60
2023-01-30T23:12:14.521Z,101831.40
2023-01-30T23:14:43.531Z,101844.40
2023-01-30T23:17:30.263Z,101840.40
2023-01-30T23:19:58.254Z,101834.20
2023-01-30T23:22:26.620Z,101815.40
2023-01-30T23:24:54.532Z,101810.60
2023-01-30T23:27:22.425Z,101816.00
2023-01-30T23:29:50.295Z,101816.40
2023-01-30T23:32:20.184Z,101811.00
2023-01-30T23:34:48.466Z,101800.20
2023-01-30T23:37:16.998Z,101801.40
2023-01-30T23:39:45.697Z,101804.60
2023-01-30T23:42:13.714Z,101795.40
2023-01-30T23:44:41.695Z,101797.40
2023-01-30T23:47:09.525Z,101807.40
2023-01-30T23:49:37.870Z,101807.40
2023-01-30T23:52:06.012Z,101806.60
2023-01-30T23:54:33.936Z,101796.60
2023-01-30T23:57:02.266Z,101799.80
2023-01-30T23:59:30.219Z,101802.40
